createdAt,value
2018-03-26T00:02:21.361Z,78.90
2018-03-26T00:04:48.061Z,71.90
2018-03-26T00:07:14.752Z,79.87
2018-03-26T00:09:41.446Z,77.77
2018-03-26T00:12:08.145Z,73.40
2018-03-26T00:14:34.849Z,80.37
2018-03-26T00:17:01.586Z,80.90
2018-03-26T00:19:28.277Z,83.43
2018-03-26T00:21:54.991Z,82.00
2018-03-26T00:24:21.664Z,81.53
2018-03-26T00:26:48.363Z,67.97
2018-03-26T00:29:15.042Z,66.47
2018-03-26T00:31:41.747Z,62.63
2018-03-26T00:34:08.433Z,71.20
2018-03-26T00:36:35.141Z,73.33
2018-03-26T00:39:01.816Z,64.70
2018-03-26T00:41:28.641Z,71.30
2018-03-26T00:43:55.338Z,67.23
2018-03-26T00:46:22.086Z,72.53
2018-03-26T00:48:48.782Z,64.13
2018-03-26T00:51:15.490Z,72.97
2018-03-26T00:53:43.883Z,62.80
2018-03-26T00:56:10.602Z,65.10
2018-03-26T00:58:37.288Z,76.17
2018-03-26T01:01:03.955Z,73.67
2018-03-26T01:03:30.645Z,90.73
2018-03-26T01:05:57.425Z,85.10
2018-03-26T01:08:24.165Z,87.23
2018-03-26T01:10:50.848Z,93.10
2018-03-26T01:13:17.542Z,80.20
2018-03-26T01:15:44.233Z,89.93
2018-03-26T01:18:10.940Z,78.67
2018-03-26T01:20:37.613Z,80.57
2018-03-26T01:23:04.329Z,78.50
2018-03-26T01:25:31.093Z,76.80
2018-03-26T01:27:57.780Z,80.20
2018-03-26T01:30:24.482Z,82.73
2018-03-26T01:32:51.166Z,79.97
2018-03-26T01:35:17.993Z,76.00
2018-03-26T01:37:44.765Z,79.20
2018-03-26T01:40:11.546Z,78.13
2018-03-26T01:42:38.237Z,71.53
2018-03-26T01:45:05.057Z,73.50
2018-03-26T01:47:31.745Z,71.63
2018-03-26T01:49:58.448Z,64.77
2018-03-26T01:52:25.124Z,67.00
2018-03-26T01:54:51.819Z,64.80
2018-03-26T01:57:18.493Z,66.60
2018-03-26T01:59:45.469Z,73.07
2018-03-26T02:02:12.181Z,57.27
2018-03-26T02:04:38.960Z,66.10
2018-03-26T02:07:05.672Z,63.07
2018-03-26T02:09:32.373Z,64.30
2018-03-26T02:11:59.073Z,60.87
2018-03-26T02:14:25.773Z,60.53
2018-03-26T02:16:52.461Z,63.37
2018-03-26T02:19:19.153Z,54.10
2018-03-26T02:21:45.848Z,57.87
2018-03-26T02:24:12.722Z,49.30
2018-03-26T02:26:39.491Z,51.57
2018-03-26T02:29:06.121Z,53.03
2018-03-26T02:31:32.832Z,52.67
2018-03-26T02:33:59.518Z,51.53
2018-03-26T02:36:26.226Z,52.13
2018-03-26T02:38:52.970Z,53.67
2018-03-26T02:41:19.741Z,47.90
2018-03-26T02:43:46.536Z,56.37
2018-03-26T02:46:13.229Z,55.60
2018-03-26T02:48:39.938Z,59.10
2018-03-26T02:51:06.610Z,52.20
2018-03-26T02:53:33.333Z,56.77
2018-03-26T02:56:00.034Z,56.63
2018-03-26T02:58:26.738Z,57.27
2018-03-26T03:00:53.454Z,53.03
2018-03-26T03:03:20.160Z,55.23
2018-03-26T03:05:46.839Z,60.67
2018-03-26T03:08:13.555Z,59.23
2018-03-26T03:10:40.266Z,52.93
2018-03-26T03:13:07.001Z,57.50
2018-03-26T03:15:33.674Z,57.33
2018-03-26T03:18:00.370Z,55.60
2018-03-26T03:20:27.061Z,62.17
2018-03-26T03:22:53.737Z,61.90
2018-03-26T03:25:20.437Z,54.00
2018-03-26T03:27:47.134Z,56.83
2018-03-26T03:30:13.838Z,57.07
2018-03-26T03:32:40.602Z,58.50
2018-03-26T03:35:07.353Z,55.50
2018-03-26T03:37:34.047Z,58.70
2018-03-26T03:40:00.753Z,56.63
2018-03-26T03:42:27.471Z,66.03
2018-03-26T03:44:54.140Z,60.90
2018-03-26T03:47:20.850Z,71.90
2018-03-26T03:49:47.520Z,67.10
2018-03-26T03:52:14.216Z,63.73
2018-03-26T03:54:40.904Z,62.27
2018-03-26T03:57:07.679Z,74.03
2018-03-26T03:59:34.492Z,62.00
2018-03-26T04:02:01.186Z,64.73
2018-03-26T04:04:27.867Z,69.10
2018-03-26T04:06:54.546Z,70.73
2018-03-26T04:09:21.252Z,65.73
2018-03-26T04:11:47.948Z,64.50
2018-03-26T04:14:14.647Z,72.80
2018-03-26T04:16:41.318Z,67.93
2018-03-26T04:19:08.025Z,74.47
2018-03-26T04:21:34.778Z,79.93
2018-03-26T04:24:01.503Z,76.53
2018-03-26T04:26:28.153Z,71.43
2018-03-26T04:28:54.849Z,78.80
2018-03-26T04:31:21.610Z,80.53
2018-03-26T04:33:48.291Z,76.63
2018-03-26T04:36:14.977Z,74.33
2018-03-26T04:38:41.673Z,78.07
2018-03-26T04:41:08.355Z,77.53
2018-03-26T04:43:35.054Z,78.53
2018-03-26T04:46:01.749Z,76.30
2018-03-26T04:48:28.462Z,75.33
2018-03-26T04:50:55.145Z,74.30
2018-03-26T04:53:21.826Z,75.93
2018-03-26T04:55:48.572Z,77.57
2018-03-26T04:58:15.284Z,78.90
2018-03-26T05:00:41.957Z,82.20
2018-03-26T05:03:08.652Z,74.03
2018-03-26T05:05:35.342Z,77.37
2018-03-26T05:08:02.035Z,76.83
2018-03-26T05:10:28.708Z,76.23
2018-03-26T05:12:55.464Z,80.60
2018-03-26T05:15:22.168Z,78.57
2018-03-26T05:17:48.840Z,80.57
2018-03-26T05:20:15.552Z,78.93
2018-03-26T05:22:42.263Z,89.50
2018-03-26T05:25:08.953Z,81.20
2018-03-26T05:27:35.625Z,79.67
2018-03-26T05:30:02.341Z,95.00
2018-03-26T05:32:29.049Z,88.77
2018-03-26T05:34:55.749Z,85.70
2018-03-26T05:37:22.662Z,81.20
2018-03-26T05:39:49.349Z,88.57
2018-03-26T05:42:16.050Z,86.90
2018-03-26T05:44:42.744Z,87.50
2018-03-26T05:47:09.417Z,79.67
2018-03-26T05:49:36.174Z,86.50
2018-03-26T05:52:02.883Z,94.57
2018-03-26T05:54:29.580Z,89.43
2018-03-26T05:56:56.287Z,80.23
2018-03-26T05:59:22.994Z,79.90
2018-03-26T06:01:49.714Z,84.47
2018-03-26T06:04:16.393Z,77.67
2018-03-26T06:06:43.080Z,64.30
2018-03-26T06:09:09.779Z,75.03
2018-03-26T06:11:36.494Z,76.20
2018-03-26T06:14:03.295Z,75.10
2018-03-26T06:16:29.975Z,70.23
2018-03-26T06:18:56.686Z,75.73
2018-03-26T06:21:23.387Z,83.73
2018-03-26T06:23:50.084Z,71.97
2018-03-26T06:26:16.796Z,74.20
2018-03-26T06:28:43.561Z,80.63
2018-03-26T06:31:10.242Z,70.97
2018-03-26T06:33:36.965Z,65.00
2018-03-26T06:36:20.562Z,75.23
2018-03-26T06:38:59.875Z,67.17
2018-03-26T06:41:26.630Z,76.17
2018-03-26T06:43:53.332Z,74.97
2018-03-26T06:46:20.025Z,71.37
2018-03-26T06:48:46.709Z,70.30
2018-03-26T06:51:13.388Z,74.10
2018-03-26T06:53:40.090Z,71.03
2018-03-26T06:56:06.796Z,68.03
2018-03-26T06:58:33.538Z,73.10
2018-03-26T07:01:00.239Z,73.80
2018-03-26T07:03:27.013Z,71.00
2018-03-26T07:05:53.697Z,72.23
2018-03-26T07:08:20.401Z,71.47
2018-03-26T07:10:47.104Z,73.27
2018-03-26T07:13:13.793Z,73.53
2018-03-26T07:15:40.498Z,69.57
2018-03-26T07:18:07.305Z,72.10
2018-03-26T07:20:33.991Z,62.30
2018-03-26T07:23:00.709Z,66.63
2018-03-26T07:25:27.382Z,63.73
2018-03-26T07:27:54.149Z,61.77
2018-03-26T07:30:20.839Z,59.13
2018-03-26T07:32:47.555Z,54.40
2018-03-26T07:35:14.327Z,53.10
2018-03-26T07:37:41.131Z,53.90
2018-03-26T07:40:07.849Z,53.30
2018-03-26T07:42:34.649Z,46.00
2018-03-26T07:45:01.359Z,49.17
2018-03-26T07:47:28.051Z,48.00
2018-03-26T07:49:54.761Z,46.70
2018-03-26T07:52:21.456Z,42.60
2018-03-26T07:54:48.153Z,48.80
2018-03-26T07:57:14.843Z,46.60
2018-03-26T07:59:41.517Z,48.40
2018-03-26T08:02:08.209Z,44.43
2018-03-26T08:04:34.934Z,48.37
2018-03-26T08:07:01.622Z,45.60
2018-03-26T08:09:28.317Z,43.10
2018-03-26T08:11:55.033Z,42.87
2018-03-26T08:14:21.729Z,35.33
2018-03-26T08:16:48.480Z,35.80
2018-03-26T08:19:15.156Z,34.90
2018-03-26T08:21:41.837Z,32.40
2018-03-26T08:24:08.529Z,35.67
2018-03-26T08:26:35.236Z,35.73
2018-03-26T08:29:01.917Z,37.67
2018-03-26T08:31:28.629Z,33.93
2018-03-26T08:33:55.312Z,29.97
2018-03-26T08:36:22.073Z,34.37
2018-03-26T08:38:48.804Z,35.37
2018-03-26T08:41:15.565Z,35.13
2018-03-26T08:43:42.271Z,34.60
2018-03-26T08:46:09.193Z,37.50
2018-03-26T08:48:36.036Z,36.60
2018-03-26T08:51:02.716Z,37.50
2018-03-26T08:53:29.512Z,29.33
2018-03-26T08:55:56.144Z,30.60
2018-03-26T08:58:22.917Z,27.90
2018-03-26T09:00:49.714Z,31.00
2018-03-26T09:03:16.405Z,31.23
2018-03-26T09:05:43.124Z,29.50
2018-03-26T09:08:09.832Z,26.50
2018-03-26T09:10:36.528Z,26.17
2018-03-26T09:13:03.229Z,25.47
2018-03-26T09:15:29.917Z,23.67
2018-03-26T09:17:56.609Z,21.40
2018-03-26T09:20:23.314Z,23.03
2018-03-26T09:22:50.029Z,21.87
2018-03-26T09:25:16.709Z,23.90
2018-03-26T09:27:43.421Z,21.50
2018-03-26T09:30:10.130Z,24.77
2018-03-26T09:32:36.833Z,25.47
2018-03-26T09:35:03.561Z,23.30
2018-03-26T09:37:30.250Z,24.47
2018-03-26T09:39:56.962Z,24.47
2018-03-26T09:42:23.671Z,20.97
2018-03-26T09:44:50.476Z,20.83
2018-03-26T09:47:17.188Z,18.90
2018-03-26T09:49:44.064Z,16.67
2018-03-26T09:52:10.773Z,14.37
2018-03-26T09:54:37.530Z,11.03
2018-03-26T09:57:04.902Z,14.87
2018-03-26T09:59:31.746Z,11.90
2018-03-26T10:01:58.454Z,10.83
2018-03-26T10:04:25.130Z,8.10
2018-03-26T10:06:51.797Z,9.23
2018-03-26T10:09:18.671Z,6.03
2018-03-26T10:11:45.341Z,6.63
2018-03-26T10:14:12.035Z,8.97
2018-03-26T10:16:38.722Z,6.30
2018-03-26T10:19:05.406Z,7.03
2018-03-26T10:21:32.111Z,9.07
2018-03-26T10:23:58.797Z,10.00
2018-03-26T10:26:25.510Z,10.90
2018-03-26T10:28:52.197Z,10.03
2018-03-26T10:31:18.896Z,10.60
2018-03-26T10:33:45.578Z,9.23
2018-03-26T10:36:12.316Z,12.07
2018-03-26T10:38:39.189Z,9.47
2018-03-26T10:41:05.875Z,11.13
2018-03-26T10:43:32.558Z,8.13
2018-03-26T10:45:59.285Z,10.80
2018-03-26T10:48:25.963Z,11.07
2018-03-26T10:50:52.680Z,8.87
2018-03-26T10:53:19.377Z,8.23
2018-03-26T10:55:46.080Z,8.73
2018-03-26T10:58:12.763Z,8.80
2018-03-26T11:00:39.502Z,10.00
2018-03-26T11:03:06.214Z,5.97
2018-03-26T11:05:32.889Z,7.37
2018-03-26T11:07:59.585Z,6.27
2018-03-26T11:10:26.265Z,7.70
2018-03-26T11:12:52.975Z,6.97
2018-03-26T11:15:19.654Z,9.20
2018-03-26T11:17:46.347Z,7.47
2018-03-26T11:20:13.217Z,8.20
2018-03-26T11:22:39.898Z,13.47
2018-03-26T11:25:06.637Z,4.90
2018-03-26T11:27:33.321Z,7.43
2018-03-26T11:30:00.162Z,8.37
2018-03-26T11:32:26.859Z,14.13
2018-03-26T11:34:53.556Z,7.60
2018-03-26T11:37:20.366Z,7.90
2018-03-26T11:39:47.036Z,9.60
2018-03-26T11:42:13.740Z,6.37
2018-03-26T11:44:40.481Z,8.73
2018-03-26T11:47:07.193Z,6.10
2018-03-26T11:49:33.903Z,7.70
2018-03-26T11:52:00.581Z,6.77
2018-03-26T11:54:27.281Z,6.33
2018-03-26T11:56:53.977Z,7.37
2018-03-26T11:59:20.681Z,6.90
2018-03-26T12:01:47.377Z,6.00
2018-03-26T12:04:14.074Z,4.63
2018-03-26T12:06:40.763Z,4.20
2018-03-26T12:09:07.580Z,6.30
2018-03-26T12:11:34.256Z,6.27
2018-03-26T12:14:00.941Z,5.93
2018-03-26T12:16:27.654Z,3.13
2018-03-26T12:18:54.329Z,4.57
2018-03-26T12:21:21.054Z,3.17
2018-03-26T12:23:53.494Z,2.90
2018-03-26T12:26:20.173Z,3.47
2018-03-26T12:28:52.726Z,3.07
2018-03-26T12:31:19.408Z,6.53
2018-03-26T12:33:51.872Z,5.30
2018-03-26T12:36:18.602Z,3.60
2018-03-26T12:38:45.278Z,6.80
2018-03-26T12:41:11.977Z,5.73
2018-03-26T12:43:38.682Z,5.87
2018-03-26T12:46:11.400Z,4.70
2018-03-26T12:48:38.170Z,3.10
2018-03-26T12:51:10.852Z,5.47
2018-03-26T12:53:37.637Z,4.30
2018-03-26T12:56:04.331Z,6.57
2018-03-26T12:58:36.909Z,2.67
2018-03-26T13:01:09.559Z,3.63
2018-03-26T13:03:36.260Z,5.10
2018-03-26T13:06:02.929Z,5.30
2018-03-26T13:08:29.634Z,5.43
2018-03-26T13:10:56.317Z,4.33
2018-03-26T13:13:23.132Z,7.93
2018-03-26T13:15:49.809Z,2.90
2018-03-26T13:18:16.498Z,3.50
2018-03-26T13:20:43.191Z,3.03
2018-03-26T13:23:09.870Z,12.03
2018-03-26T13:25:36.576Z,5.27
2018-03-26T13:28:03.262Z,4.77
2018-03-26T13:30:30.114Z,8.03
2018-03-26T13:32:56.806Z,4.23
2018-03-26T13:35:23.493Z,5.00
2018-03-26T13:37:50.202Z,3.13
2018-03-26T13:40:16.894Z,4.77
2018-03-26T13:42:43.611Z,4.70
2018-03-26T13:45:10.305Z,4.77
2018-03-26T13:47:37.002Z,4.20
2018-03-26T13:50:03.738Z,5.30
2018-03-26T13:52:30.385Z,4.43
2018-03-26T13:54:57.092Z,4.13
2018-03-26T13:57:23.773Z,2.47
2018-03-26T13:59:50.485Z,4.70
2018-03-26T14:02:17.189Z,18.10
2018-03-26T14:04:43.914Z,6.23
2018-03-26T14:07:10.587Z,3.37
2018-03-26T14:09:43.213Z,5.90
2018-03-26T14:12:15.740Z,6.60
2018-03-26T14:14:48.246Z,7.27
2018-03-26T14:17:20.730Z,3.10
2018-03-26T14:19:47.423Z,4.67
2018-03-26T14:22:14.153Z,3.00
2018-03-26T14:24:40.829Z,6.17
2018-03-26T14:27:07.609Z,3.97
2018-03-26T14:29:34.453Z,6.03
2018-03-26T14:32:01.151Z,4.47
2018-03-26T14:34:27.976Z,6.13
2018-03-26T14:36:54.753Z,7.80
2018-03-26T14:39:21.505Z,5.47
2018-03-26T14:41:48.247Z,4.07
2018-03-26T14:44:14.946Z,7.80
2018-03-26T14:46:41.651Z,8.90
2018-03-26T14:49:08.354Z,4.70
2018-03-26T14:51:35.041Z,4.90
2018-03-26T14:54:01.798Z,3.97
2018-03-26T14:56:28.476Z,4.80
2018-03-26T14:58:55.176Z,6.63
2018-03-26T15:01:21.861Z,3.73
2018-03-26T15:03:48.539Z,5.23
2018-03-26T15:06:15.241Z,4.43
2018-03-26T15:08:41.925Z,4.53
2018-03-26T15:11:08.744Z,4.83
2018-03-26T15:13:35.430Z,6.03
2018-03-26T15:16:02.162Z,4.37
2018-03-26T15:18:28.848Z,4.37
2018-03-26T15:20:55.606Z,5.37
2018-03-26T15:23:22.303Z,4.53
2018-03-26T15:25:48.988Z,3.93
2018-03-26T15:28:15.738Z,6.93
2018-03-26T15:30:42.530Z,6.37
2018-03-26T15:33:09.189Z,6.50
2018-03-26T15:35:35.889Z,5.50
2018-03-26T15:38:02.581Z,6.67
2018-03-26T15:40:29.273Z,5.33
2018-03-26T15:42:55.946Z,5.77
2018-03-26T15:45:22.609Z,9.37
2018-03-26T15:47:49.366Z,8.47
2018-03-26T15:50:16.062Z,6.70
2018-03-26T15:52:42.769Z,7.17
2018-03-26T15:55:09.558Z,9.00
2018-03-26T15:57:36.249Z,7.60
2018-03-26T16:00:02.945Z,8.57
2018-03-26T16:02:35.469Z,8.87
2018-03-26T16:05:02.165Z,7.80
2018-03-26T16:07:28.864Z,9.10
2018-03-26T16:09:55.570Z,9.00
2018-03-26T16:12:22.273Z,6.00
2018-03-26T16:14:48.958Z,9.83
2018-03-26T16:17:15.637Z,9.30
2018-03-26T16:19:42.453Z,6.97
2018-03-26T16:22:09.125Z,6.80
2018-03-26T16:24:35.829Z,5.97
2018-03-26T16:27:02.517Z,9.23
2018-03-26T16:29:29.219Z,13.50
2018-03-26T16:31:55.957Z,7.30
2018-03-26T16:34:22.673Z,10.30
2018-03-26T16:36:49.357Z,8.27
2018-03-26T16:39:16.208Z,14.53
2018-03-26T16:41:47.757Z,13.80
2018-03-26T16:44:14.454Z,15.43
2018-03-26T16:46:41.149Z,8.73
2018-03-26T16:49:07.851Z,10.87
2018-03-26T16:51:34.558Z,6.47
2018-03-26T16:54:01.251Z,7.13
2018-03-26T16:56:28.026Z,7.43
2018-03-26T16:58:54.733Z,9.80
2018-03-26T17:01:21.463Z,13.37
2018-03-26T17:03:48.164Z,6.80
2018-03-26T17:06:14.862Z,5.97
2018-03-26T17:08:41.572Z,6.27
2018-03-26T17:11:08.321Z,5.87
2018-03-26T17:13:35.046Z,5.00
2018-03-26T17:16:01.757Z,10.00
2018-03-26T17:18:28.483Z,6.20
2018-03-26T17:20:55.200Z,5.63
2018-03-26T17:23:21.894Z,5.73
2018-03-26T17:25:48.661Z,6.50
2018-03-26T17:28:15.361Z,10.40
2018-03-26T17:30:42.062Z,6.00
2018-03-26T17:33:08.755Z,7.73
2018-03-26T17:35:35.682Z,8.50
2018-03-26T17:38:02.362Z,6.93
2018-03-26T17:40:29.086Z,6.00
2018-03-26T17:42:55.793Z,7.90
2018-03-26T17:45:22.483Z,6.60
2018-03-26T17:47:49.231Z,6.97
2018-03-26T17:50:15.932Z,5.50
2018-03-26T17:52:42.754Z,6.00
2018-03-26T17:55:09.576Z,6.30
2018-03-26T17:57:36.359Z,6.60
2018-03-26T18:00:03.045Z,6.27
2018-03-26T18:02:29.763Z,6.10
2018-03-26T18:04:56.535Z,6.13
2018-03-26T18:07:23.216Z,8.80
2018-03-26T18:09:49.921Z,6.33
2018-03-26T18:12:16.577Z,7.87
2018-03-26T18:14:43.340Z,8.63
2018-03-26T18:17:09.995Z,5.70
2018-03-26T18:19:36.701Z,7.43
2018-03-26T18:22:03.391Z,6.80
2018-03-26T18:24:30.109Z,7.27
2018-03-26T18:26:56.829Z,6.27
2018-03-26T18:29:23.669Z,8.73
2018-03-26T18:31:50.348Z,8.37
2018-03-26T18:34:17.063Z,9.10
2018-03-26T18:36:43.771Z,7.40
2018-03-26T18:39:10.591Z,8.23
2018-03-26T18:41:37.293Z,6.40
2018-03-26T18:44:04.747Z,8.50
2018-03-26T18:46:31.451Z,6.93
2018-03-26T18:48:58.178Z,7.47
2018-03-26T18:51:24.903Z,8.57
2018-03-26T18:53:51.627Z,8.50
2018-03-26T18:56:18.317Z,15.80
2018-03-26T18:58:45.040Z,9.43
2018-03-26T19:01:11.757Z,10.27
2018-03-26T19:03:38.500Z,8.03
2018-03-26T19:06:05.171Z,8.73
2018-03-26T19:08:31.882Z,8.30
2018-03-26T19:10:58.611Z,10.20
2018-03-26T19:13:25.323Z,10.53
2018-03-26T19:15:52.020Z,7.07
2018-03-26T19:18:18.737Z,9.00
2018-03-26T19:20:45.493Z,9.60
2018-03-26T19:23:12.168Z,10.60
2018-03-26T19:25:38.869Z,10.10
2018-03-26T19:28:05.609Z,10.60
2018-03-26T19:30:32.324Z,9.67
2018-03-26T19:32:59.047Z,12.20
2018-03-26T19:35:25.732Z,10.07
2018-03-26T19:37:52.454Z,12.63
2018-03-26T19:40:19.346Z,10.30
2018-03-26T19:42:46.024Z,13.20
2018-03-26T19:45:12.741Z,12.80
2018-03-26T19:47:39.472Z,11.17
2018-03-26T19:50:06.161Z,14.93
2018-03-26T19:52:33.004Z,11.23
2018-03-26T19:54:59.691Z,15.90
2018-03-26T19:57:26.434Z,16.30
2018-03-26T19:59:53.146Z,13.07
2018-03-26T20:02:19.833Z,15.27
2018-03-26T20:04:46.558Z,14.70
2018-03-26T20:07:13.314Z,16.63
2018-03-26T20:09:40.165Z,13.90
2018-03-26T20:12:06.915Z,12.27
2018-03-26T20:14:33.665Z,13.27
2018-03-26T20:17:00.401Z,14.37
2018-03-26T20:19:27.141Z,15.53
2018-03-26T20:21:53.918Z,13.27
2018-03-26T20:24:20.619Z,14.93
2018-03-26T20:26:47.342Z,16.73
2018-03-26T20:29:14.044Z,13.00
2018-03-26T20:31:40.765Z,13.80
2018-03-26T20:34:07.457Z,13.73
2018-03-26T20:36:34.172Z,14.53
2018-03-26T20:39:00.909Z,13.20
2018-03-26T20:41:27.636Z,19.20
2018-03-26T20:43:54.390Z,11.73
2018-03-26T20:46:21.145Z,14.33
2018-03-26T20:48:47.850Z,15.37
2018-03-26T20:51:14.788Z,12.57
2018-03-26T20:53:41.508Z,20.63
2018-03-26T20:56:08.222Z,14.03
2018-03-26T20:58:34.917Z,13.23
2018-03-26T21:01:01.630Z,14.50
2018-03-26T21:03:28.347Z,14.60
2018-03-26T21:05:55.949Z,16.77
2018-03-26T21:08:22.663Z,17.23
2018-03-26T21:10:49.366Z,17.03
2018-03-26T21:13:16.105Z,16.93
2018-03-26T21:15:42.812Z,16.40
2018-03-26T21:18:09.651Z,15.53
2018-03-26T21:20:36.354Z,12.90
2018-03-26T21:23:03.073Z,15.03
2018-03-26T21:25:29.805Z,17.53
2018-03-26T21:27:56.709Z,17.90
2018-03-26T21:30:23.402Z,14.60
2018-03-26T21:32:50.225Z,15.57
2018-03-26T21:35:16.914Z,16.00
2018-03-26T21:37:43.658Z,16.80
2018-03-26T21:40:10.342Z,15.20
2018-03-26T21:42:37.127Z,17.40
2018-03-26T21:45:03.856Z,16.60
2018-03-26T21:47:30.531Z,15.97
2018-03-26T21:49:57.249Z,13.93
2018-03-26T21:52:23.933Z,15.20
2018-03-26T21:54:50.631Z,16.20
2018-03-26T21:57:17.356Z,12.50
2018-03-26T21:59:44.409Z,14.67
2018-03-26T22:02:11.122Z,13.40
2018-03-26T22:04:37.821Z,13.70
2018-03-26T22:07:04.513Z,16.67
2018-03-26T22:09:31.202Z,17.43
2018-03-26T22:11:57.965Z,15.23
2018-03-26T22:14:24.671Z,15.77
2018-03-26T22:16:51.345Z,14.47
2018-03-26T22:19:18.041Z,15.73
2018-03-26T22:21:44.869Z,15.60
2018-03-26T22:24:11.556Z,17.30
2018-03-26T22:26:38.253Z,18.17
2018-03-26T22:29:04.968Z,19.30
2018-03-26T22:31:31.645Z,19.20
2018-03-26T22:33:58.361Z,21.80
2018-03-26T22:36:25.052Z,19.17
2018-03-26T22:38:51.734Z,21.17
2018-03-26T22:41:18.458Z,19.23
2018-03-26T22:43:45.174Z,20.97
2018-03-26T22:46:11.862Z,19.23
2018-03-26T22:48:38.730Z,18.00
2018-03-26T22:51:05.425Z,18.10
2018-03-26T22:53:32.174Z,16.00
2018-03-26T22:55:58.852Z,14.90
2018-03-26T22:58:25.677Z,18.80
2018-03-26T23:00:52.498Z,24.67
2018-03-26T23:03:19.201Z,19.60
2018-03-26T23:05:45.893Z,19.27
2018-03-26T23:08:12.564Z,20.17
2018-03-26T23:10:39.266Z,18.87
2018-03-26T23:13:05.957Z,23.37
2018-03-26T23:15:32.786Z,25.60
2018-03-26T23:17:59.512Z,25.20
2018-03-26T23:20:26.217Z,22.17
2018-03-26T23:22:52.982Z,25.50
2018-03-26T23:25:19.681Z,21.00
2018-03-26T23:27:46.353Z,19.97
2018-03-26T23:32:46.677Z,32.13
2018-03-26T23:35:13.421Z,25.33
2018-03-26T23:37:40.152Z,25.20
2018-03-26T23:40:07.008Z,25.67
2018-03-26T23:42:33.689Z,35.00
2018-03-26T23:45:00.404Z,28.60
2018-03-26T23:47:27.105Z,35.30
2018-03-26T23:49:53.805Z,35.00
2018-03-26T23:52:20.502Z,33.70
2018-03-26T23:54:47.291Z,31.67
2018-03-26T23:57:13.986Z,41.20
2018-03-26T23:59:40.701Z,32.57
